Beaver, Kansas
Current Conditions -  °F | °C
As of 3:55 PM on Friday 24 Oct 2014 (Local Time) from KGBD Reporting Station
Clear Clear  
Wind Chill: 84°   Ceiling: Unl
Heat Index: 84°   Visibility: 10mi
Dew Point: 55°   Wind: 13mph
Humidity: 37%   Direction: 210°SSW
Pressure: 29.97"   Gusts: NA
Location:  38.5656°N, 98.5907°W
Report Text: KGBD 242055Z AUTO 21011KT 10SM CLR 29/13 A2997 RMK AO1 57024
Loading
Personal Weather Stations






























Interactive Weather Map
Tropical Storm Tracking
New forecast layout! Learn more

10-Day Weather Forecast

Advertisements
Track Severe Weather on mobile